Integrity — WDF4881 — position and weather

sailwx.info

Track history (hours):
 
Tides and Currents Weather Stations Pressure Air Temp Water Temp Dewpoint Dewpoint Depression Visibility Wind Speed Wind Dir Waves Ship Positions

Integrity

Owner: Canal Barge Company, Inc., Belle Chasse, LA. More information available from US FCC via Universal Licensing System and Coast Guard Vessel Documentation Center.

Last reported at 2015-Feb-21 17:13 UTC. Time now 2015-Mar-06 06:01 UTC.
Position N 29°26' W 094°50'.
Warning: this ship's position is 12 days out of date.

Length 19 m; draft 2.8 m.

Type: Towing. MMSI: 367456830.

Date/timePositionNaut miles runAvg speedWind from/ knotsBaromVisibWave heightAir tempDewpointWater temp
2015-Feb-21 17:13N 29°26' W 094°50'5 8.1
2015-Feb-21 16:33N 29°31' W 094°53'8 7.8
2015-Feb-21 15:33N 29°37' W 094°58'7 6.7
2015-Feb-21 14:33N 29°43' W 095°01'5 4.6
2015-Feb-21 13:32N 29°45' W 095°06'0 0.2
2015-Feb-21 12:31N 29°45' W 095°06'0 0.0
2015-Feb-21 11:33N 29°45' W 095°06'0 0.0
2015-Feb-21 10:33N 29°45' W 095°06'0 0.0
2015-Feb-21 09:33N 29°45' W 095°06'0 0.0
2015-Feb-21 08:33N 29°45' W 095°06'0 0.0
2015-Feb-21 06:32N 29°45' W 095°06'0 0.0
2015-Feb-21 03:26N 29°45' W 095°06'0 0.0
2015-Feb-21 01:10N 29°45' W 095°06'0 0.0
2015-Feb-21 00:18N 29°45' W 095°06'0 0.0
2015-Feb-20 19:14N 29°45' W 095°06'1 1.5
2015-Feb-20 18:33N 29°46' W 095°05'2 2.5
2015-Feb-20 17:33N 29°47' W 095°04'0 0.0
2015-Feb-20 16:33N 29°47' W 095°04'0 0.0
2015-Feb-20 15:33N 29°47' W 095°04'2 2.4
2015-Feb-20 14:33N 29°46' W 095°06'0 0.0
2015-Feb-20 13:33N 29°46' W 095°06'0 0.0
2015-Feb-20 12:33N 29°46' W 095°06'0 0.0
2015-Feb-20 11:33N 29°46' W 095°06'0 0.0
2015-Feb-20 10:33N 29°46' W 095°06'0 0.0
2015-Feb-20 09:33N 29°46' W 095°06'0 0.0
2015-Feb-20 08:33N 29°46' W 095°06'0 0.0
2015-Feb-20 07:33N 29°46' W 095°06'0 0.0
2015-Feb-20 06:33N 29°46' W 095°06'0 0.0
2015-Feb-20 05:33N 29°46' W 095°06'0 0.0
2015-Feb-20 03:33N 29°46' W 095°06'0 0.0
2015-Feb-20 02:33N 29°46' W 095°06'0 0.0
2015-Feb-20 01:33N 29°46' W 095°06'0 0.0
2015-Feb-20 00:33N 29°46' W 095°06'0 0.0
2015-Feb-19 23:33N 29°46' W 095°06'0 0.0
2015-Feb-19 22:33N 29°46' W 095°06'0 0.0
2015-Feb-19 21:32N 29°46' W 095°06'0 0.0
2015-Feb-19 20:33N 29°46' W 095°06'0 0.0
2015-Feb-19 19:33N 29°46' W 095°06'0 0.0
2015-Feb-19 18:33N 29°46' W 095°06'0 0.0
2015-Feb-19 17:33N 29°46' W 095°06'0 0.0
2015-Feb-19 16:33N 29°46' W 095°06'0 0.0
2015-Feb-19 15:33N 29°46' W 095°06'0 0.0
2015-Feb-19 14:33N 29°46' W 095°06'0 0.0
2015-Feb-19 13:33N 29°46' W 095°06'0 0.0
2015-Feb-19 12:33N 29°46' W 095°06'0 0.0
2015-Feb-19 11:33N 29°46' W 095°06'0 0.0
2015-Feb-19 10:33N 29°46' W 095°06'0 0.0
2015-Feb-19 09:33N 29°46' W 095°06'0 0.0
2015-Feb-19 08:33N 29°46' W 095°06'0 0.0
2015-Feb-19 07:33N 29°46' W 095°06'0 0.0
2015-Feb-19 06:33N 29°46' W 095°06'0 0.0
2015-Feb-19 05:33N 29°46' W 095°06'0 0.0
2015-Feb-19 04:33N 29°46' W 095°06'0 0.0
2015-Feb-19 03:33N 29°46' W 095°06'0 0.0
2015-Feb-19 02:33N 29°46' W 095°06'0 0.0
2015-Feb-19 01:33N 29°46' W 095°06'0 0.0
2015-Feb-19 00:33N 29°46' W 095°06'0 0.0
2015-Feb-18 23:33N 29°46' W 095°06'0 0.0
2015-Feb-18 22:33N 29°46' W 095°06'0 0.0
2015-Feb-18 21:33N 29°46' W 095°06'0 0.0
2015-Feb-18 20:33N 29°46' W 095°06'0 0.0
2015-Feb-18 19:33N 29°46' W 095°06'0 0.0
2015-Feb-18 18:33N 29°46' W 095°06'0 0.0
2015-Feb-18 17:33N 29°46' W 095°06'0 0.0
2015-Feb-18 16:33N 29°46' W 095°06'1 1.0
2015-Feb-18 15:33N 29°46' W 095°05'2 1.7
2015-Feb-18 14:33N 29°47' W 095°04'0 0.1
2015-Feb-18 13:33N 29°47' W 095°04'0 0.0
2015-Feb-18 12:33N 29°47' W 095°04'0 0.0
2015-Feb-18 11:33N 29°47' W 095°04'0 0.0
2015-Feb-18 10:33N 29°47' W 095°04'0 0.0
2015-Feb-18 09:33N 29°47' W 095°04'0 0.0
2015-Feb-18 08:33N 29°47' W 095°04'0 0.0
2015-Feb-18 07:33N 29°47' W 095°04'0 0.0
2015-Feb-18 06:33N 29°47' W 095°04'3 2.6
2015-Feb-18 05:33N 29°45' W 095°04'6 5.7
2015-Feb-18 04:33N 29°41' W 094°59'7 7.3
2015-Feb-18 03:33N 29°34' W 094°55'  
Track history (hours):
 
Tides and Currents Weather Stations Pressure Air Temp Water Temp Dewpoint Dewpoint Depression Visibility Wind Speed Wind Dir Waves Ship Positions

Integrity

Owner: Canal Barge Company, Inc., Belle Chasse, LA. More information available from US FCC via Universal Licensing System and Coast Guard Vessel Documentation Center.

Last reported at 2015-Feb-21 17:13 UTC. Time now 2015-Mar-06 06:01 UTC.
Position N 29°26' W 094°50'.
Warning: this ship's position is 12 days out of date.

Length 19 m; draft 2.8 m.

Type: Towing. MMSI: 367456830.

Date/timePositionNaut miles runAvg speedWind from/ knotsBaromVisibWave heightAir tempDewpointWater temp
2015-Feb-21 17:13N 29°26' W 094°50'5 8.1
2015-Feb-21 16:33N 29°31' W 094°53'8 7.8
2015-Feb-21 15:33N 29°37' W 094°58'7 6.7
2015-Feb-21 14:33N 29°43' W 095°01'5 4.6
2015-Feb-21 13:32N 29°45' W 095°06'0 0.2
2015-Feb-21 12:31N 29°45' W 095°06'0 0.0
2015-Feb-21 11:33N 29°45' W 095°06'0 0.0
2015-Feb-21 10:33N 29°45' W 095°06'0 0.0
2015-Feb-21 09:33N 29°45' W 095°06'0 0.0
2015-Feb-21 08:33N 29°45' W 095°06'0 0.0
2015-Feb-21 06:32N 29°45' W 095°06'0 0.0
2015-Feb-21 03:26N 29°45' W 095°06'0 0.0
2015-Feb-21 01:10N 29°45' W 095°06'0 0.0
2015-Feb-21 00:18N 29°45' W 095°06'0 0.0
2015-Feb-20 19:14N 29°45' W 095°06'1 1.5
2015-Feb-20 18:33N 29°46' W 095°05'2 2.5
2015-Feb-20 17:33N 29°47' W 095°04'0 0.0
2015-Feb-20 16:33N 29°47' W 095°04'0 0.0
2015-Feb-20 15:33N 29°47' W 095°04'2 2.4
2015-Feb-20 14:33N 29°46' W 095°06'0 0.0
2015-Feb-20 13:33N 29°46' W 095°06'0 0.0
2015-Feb-20 12:33N 29°46' W 095°06'0 0.0
2015-Feb-20 11:33N 29°46' W 095°06'0 0.0
2015-Feb-20 10:33N 29°46' W 095°06'0 0.0
2015-Feb-20 09:33N 29°46' W 095°06'0 0.0
2015-Feb-20 08:33N 29°46' W 095°06'0 0.0
2015-Feb-20 07:33N 29°46' W 095°06'0 0.0
2015-Feb-20 06:33N 29°46' W 095°06'0 0.0
2015-Feb-20 05:33N 29°46' W 095°06'0 0.0
2015-Feb-20 03:33N 29°46' W 095°06'0 0.0
2015-Feb-20 02:33N 29°46' W 095°06'0 0.0
2015-Feb-20 01:33N 29°46' W 095°06'0 0.0
2015-Feb-20 00:33N 29°46' W 095°06'0 0.0
2015-Feb-19 23:33N 29°46' W 095°06'0 0.0
2015-Feb-19 22:33N 29°46' W 095°06'0 0.0
2015-Feb-19 21:32N 29°46' W 095°06'0 0.0
2015-Feb-19 20:33N 29°46' W 095°06'0 0.0
2015-Feb-19 19:33N 29°46' W 095°06'0 0.0
2015-Feb-19 18:33N 29°46' W 095°06'0 0.0
2015-Feb-19 17:33N 29°46' W 095°06'0 0.0
2015-Feb-19 16:33N 29°46' W 095°06'0 0.0
2015-Feb-19 15:33N 29°46' W 095°06'0 0.0
2015-Feb-19 14:33N 29°46' W 095°06'0 0.0
2015-Feb-19 13:33N 29°46' W 095°06'0 0.0
2015-Feb-19 12:33N 29°46' W 095°06'0 0.0
2015-Feb-19 11:33N 29°46' W 095°06'0 0.0
2015-Feb-19 10:33N 29°46' W 095°06'0 0.0
2015-Feb-19 09:33N 29°46' W 095°06'0 0.0
2015-Feb-19 08:33N 29°46' W 095°06'0 0.0
2015-Feb-19 07:33N 29°46' W 095°06'0 0.0
2015-Feb-19 06:33N 29°46' W 095°06'0 0.0
2015-Feb-19 05:33N 29°46' W 095°06'0 0.0
2015-Feb-19 04:33N 29°46' W 095°06'0 0.0
2015-Feb-19 03:33N 29°46' W 095°06'0 0.0
2015-Feb-19 02:33N 29°46' W 095°06'0 0.0
2015-Feb-19 01:33N 29°46' W 095°06'0 0.0
2015-Feb-19 00:33N 29°46' W 095°06'0 0.0
2015-Feb-18 23:33N 29°46' W 095°06'0 0.0
2015-Feb-18 22:33N 29°46' W 095°06'0 0.0
2015-Feb-18 21:33N 29°46' W 095°06'0 0.0
2015-Feb-18 20:33N 29°46' W 095°06'0 0.0
2015-Feb-18 19:33N 29°46' W 095°06'0 0.0
2015-Feb-18 18:33N 29°46' W 095°06'0 0.0
2015-Feb-18 17:33N 29°46' W 095°06'0 0.0
2015-Feb-18 16:33N 29°46' W 095°06'1 1.0
2015-Feb-18 15:33N 29°46' W 095°05'2 1.7
2015-Feb-18 14:33N 29°47' W 095°04'0 0.1
2015-Feb-18 13:33N 29°47' W 095°04'0 0.0
2015-Feb-18 12:33N 29°47' W 095°04'0 0.0
2015-Feb-18 11:33N 29°47' W 095°04'0 0.0
2015-Feb-18 10:33N 29°47' W 095°04'0 0.0
2015-Feb-18 09:33N 29°47' W 095°04'0 0.0
2015-Feb-18 08:33N 29°47' W 095°04'0 0.0
2015-Feb-18 07:33N 29°47' W 095°04'0 0.0
2015-Feb-18 06:33N 29°47' W 095°04'3 2.6
2015-Feb-18 05:33N 29°45' W 095°04'6 5.7
2015-Feb-18 04:33N 29°41' W 094°59'7 7.3
2015-Feb-18 03:33N 29°34' W 094°55'  

Dump ship's entire track history